Main page
METAR-TAF:

METAR-TAF

Airports :

Sukkur Airport

Sukkur, Pakistan

latitude: 27-43-19N, longitude: 068-47-31E, elevation: 60 m

Current weather observation

The report was made 35 minutes ago, at 23:59 UTC
Wind 6 kt from the South
Temperature 24°C
Humidity 54%
Pressure 1002 hPa
Visibility: 3000 m
haze

METAR: OPSK 232359Z 18006KT 3000 HZ NSC 24/14 Q1002 NOSIG

Time: 05:34 (00:34 UTC)

Forecast

The report was made 3 hours and 4 minutes ago, at 21:30 UTC
Forecast valid from 24 at 00 UTC to 24 at 24 UTC
Wind 5 kt from the Southwest with gusts up to 15 kt
Visibility: 6000 m
Temporary
from 24 at 00 UTC to 24 at 04 UTC
Wind 3 kt from variable directions
Visibility: 3000 m
haze
From 24 at 1500 UTC
Wind 5 kt from the South/Southwest with gusts up to 15 kt
Visibility: 6000 m

TAF: OPSK 232130Z 2400/2424 23005G15KT 6000 NSC TEMPO 2400/2404 VRB03KT 3000 HZ NSC FM241500 21005G15KT 6000 NSC

Weather observations and forecasts of more than 4000 airports (METAR and TAF reports).

The available stations are represented by yellow and red dots on the map.

Hover mouse over dot to see the name of the station.

Then click to see weather observations and forecasts.

To change the map : click on the green buttons with a black cross to zoom in, on the green button with a dash to zoom out, or on the green arrows for adjacent maps.


METAR-TAF: